sensor_id;sensor_type;location;lat;lon;timestamp;pressure;altitude;pressure_sealevel;temperature;humidity
74310;BME280;62722;51.142;17.052;2023-04-03T00:01:31;101164.34;;;1.54;72.90
74310;BME280;62722;51.142;17.052;2023-04-03T00:03:59;101166.78;;;1.63;73.52
74310;BME280;62722;51.142;17.052;2023-04-03T00:06:41;101170.38;;;1.56;72.50
74310;BME280;62722;51.142;17.052;2023-04-03T00:09:13;101171.13;;;1.63;72.85
74310;BME280;62722;51.142;17.052;2023-04-03T00:11:40;101177.34;;;1.53;72.88
74310;BME280;62722;51.142;17.052;2023-04-03T00:14:07;101172.16;;;1.54;72.42
74310;BME280;62722;51.142;17.052;2023-04-03T00:16:35;101169.56;;;1.53;73.51
74310;BME280;62722;51.142;17.052;2023-04-03T00:19:02;101172.97;;;1.58;72.65
74310;BME280;62722;51.142;17.052;2023-04-03T00:21:29;101170.31;;;1.59;72.87
74310;BME280;62722;51.142;17.052;2023-04-03T00:23:57;101174.75;;;1.53;73.10
74310;BME280;62722;51.142;17.052;2023-04-03T00:26:26;101174.03;;;1.41;72.65
74310;BME280;62722;51.142;17.052;2023-04-03T00:28:54;101175.66;;;1.50;73.42
74310;BME280;62722;51.142;17.052;2023-04-03T00:31:22;101176.59;;;1.48;73.29
74310;BME280;62722;51.142;17.052;2023-04-03T00:33:51;101173.22;;;1.39;73.70
74310;BME280;62722;51.142;17.052;2023-04-03T00:36:19;101167.97;;;1.42;73.92
74310;BME280;62722;51.142;17.052;2023-04-03T00:38:49;101168.06;;;1.36;73.82
74310;BME280;62722;51.142;17.052;2023-04-03T00:41:17;101145.69;;;1.23;74.28
74310;BME280;62722;51.142;17.052;2023-04-03T00:43:46;101158.38;;;1.44;74.31
74310;BME280;62722;51.142;17.052;2023-04-03T00:46:14;101171.44;;;1.43;74.24
74310;BME280;62722;51.142;17.052;2023-04-03T00:48:44;101168.03;;;1.38;74.55
74310;BME280;62722;51.142;17.052;2023-04-03T00:51:13;101169.88;;;1.30;73.98
74310;BME280;62722;51.142;17.052;2023-04-03T00:53:45;101172.56;;;1.25;75.10
74310;BME280;62722;51.142;17.052;2023-04-03T00:56:16;101170.19;;;1.07;75.38
74310;BME280;62722;51.142;17.052;2023-04-03T00:58:50;101174.53;;;1.04;75.26
74310;BME280;62722;51.142;17.052;2023-04-03T01:01:21;101179.78;;;1.02;75.15
74310;BME280;62722;51.142;17.052;2023-04-03T01:03:49;101191.00;;;1.06;75.62
74310;BME280;62722;51.142;17.052;2023-04-03T01:06:21;101184.00;;;1.08;75.72
74310;BME280;62722;51.142;17.052;2023-04-03T01:08:50;101198.88;;;0.96;75.55
74310;BME280;62722;51.142;17.052;2023-04-03T01:11:18;101187.53;;;1.07;75.70
74310;BME280;62722;51.142;17.052;2023-04-03T01:13:48;101189.22;;;1.11;75.27
74310;BME280;62722;51.142;17.052;2023-04-03T01:16:16;101197.88;;;1.08;75.53
74310;BME280;62722;51.142;17.052;2023-04-03T01:18:44;101190.97;;;1.07;75.22
74310;BME280;62722;51.142;17.052;2023-04-03T01:24:30;101203.72;;;1.27;75.27
74310;BME280;62722;51.142;17.052;2023-04-03T01:26:59;101200.25;;;1.26;76.03
74310;BME280;62722;51.142;17.052;2023-04-03T01:29:30;101202.22;;;1.11;76.20
74310;BME280;62722;51.142;17.052;2023-04-03T01:31:59;101207.41;;;1.11;76.51
74310;BME280;62722;51.142;17.052;2023-04-03T01:34:29;101203.84;;;1.16;75.93
74310;BME280;62722;51.142;17.052;2023-04-03T01:36:56;101209.16;;;1.09;75.64
74310;BME280;62722;51.142;17.052;2023-04-03T01:39:24;101213.44;;;1.11;76.41
74310;BME280;62722;51.142;17.052;2023-04-03T01:41:51;101210.06;;;1.06;76.90
74310;BME280;62722;51.142;17.052;2023-04-03T01:44:19;101212.75;;;0.97;76.91
74310;BME280;62722;51.142;17.052;2023-04-03T01:46:46;101224.09;;;0.91;76.48
74310;BME280;62722;51.142;17.052;2023-04-03T01:49:15;101211.88;;;0.96;77.79
74310;BME280;62722;51.142;17.052;2023-04-03T01:51:42;101209.47;;;0.78;77.74
74310;BME280;62722;51.142;17.052;2023-04-03T01:54:10;101210.34;;;0.80;78.03
74310;BME280;62722;51.142;17.052;2023-04-03T01:56:37;101217.16;;;0.92;77.55
74310;BME280;62722;51.142;17.052;2023-04-03T01:59:05;101212.91;;;0.83;78.21
74310;BME280;62722;51.142;17.052;2023-04-03T02:01:32;101224.16;;;0.82;78.00
74310;BME280;62722;51.142;17.052;2023-04-03T02:03:59;101215.66;;;0.70;77.88
74310;BME280;62722;51.142;17.052;2023-04-03T02:06:28;101214.69;;;0.78;78.94
74310;BME280;62722;51.142;17.052;2023-04-03T02:08:55;101212.19;;;0.69;78.63
74310;BME280;62722;51.142;17.052;2023-04-03T02:11:23;101214.88;;;0.60;78.70
74310;BME280;62722;51.142;17.052;2023-04-03T02:13:50;101211.38;;;0.64;79.41
74310;BME280;62722;51.142;17.052;2023-04-03T02:16:17;101218.25;;;0.68;79.15
74310;BME280;62722;51.142;17.052;2023-04-03T02:18:45;101222.56;;;0.72;78.42
74310;BME280;62722;51.142;17.052;2023-04-03T02:21:12;101221.69;;;0.73;79.13
74310;BME280;62722;51.142;17.052;2023-04-03T02:23:41;101229.50;;;0.69;79.61
74310;BME280;62722;51.142;17.052;2023-04-03T02:26:10;101227.00;;;0.60;79.17
74310;BME280;62722;51.142;17.052;2023-04-03T02:28:38;101224.53;;;0.46;80.15
74310;BME280;62722;51.142;17.052;2023-04-03T02:31:07;101222.91;;;0.36;80.19
74310;BME280;62722;51.142;17.052;2023-04-03T02:33:35;101222.06;;;0.31;81.03
74310;BME280;62722;51.142;17.052;2023-04-03T02:36:04;101225.56;;;0.27;81.17
74310;BME280;62722;51.142;17.052;2023-04-03T02:38:32;101237.63;;;0.34;80.69
74310;BME280;62722;51.142;17.052;2023-04-03T02:41:03;101229.03;;;0.29;81.11
74310;BME280;62722;51.142;17.052;2023-04-03T02:43:32;101234.19;;;0.30;81.22
74310;BME280;62722;51.142;17.052;2023-04-03T02:45:59;101228.16;;;0.28;81.20
74310;BME280;62722;51.142;17.052;2023-04-03T02:48:27;101234.16;;;0.35;81.52
74310;BME280;62722;51.142;17.052;2023-04-03T02:50:54;101235.84;;;0.39;81.25
74310;BME280;62722;51.142;17.052;2023-04-03T02:53:22;101245.41;;;0.35;81.25
74310;BME280;62722;51.142;17.052;2023-04-03T02:55:49;101234.16;;;0.35;81.56
74310;BME280;62722;51.142;17.052;2023-04-03T02:58:18;101249.66;;;0.41;81.27
74310;BME280;62722;51.142;17.052;2023-04-03T03:00:45;101246.31;;;0.33;81.49
74310;BME280;62722;51.142;17.052;2023-04-03T03:03:12;101244.59;;;0.29;81.58
74310;BME280;62722;51.142;17.052;2023-04-03T03:05:40;101250.63;;;0.32;81.15
74310;BME280;62722;51.142;17.052;2023-04-03T03:08:08;101258.44;;;0.29;81.67
74310;BME280;62722;51.142;17.052;2023-04-03T03:10:35;101255.88;;;0.23;82.18
74310;BME280;62722;51.142;17.052;2023-04-03T03:13:03;101248.97;;;0.19;82.53
74310;BME280;62722;51.142;17.052;2023-04-03T03:15:31;101252.47;;;0.15;82.34
74310;BME280;62722;51.142;17.052;2023-04-03T03:17:59;101247.34;;;0.11;82.54
74310;BME280;62722;51.142;17.052;2023-04-03T03:20:26;101254.25;;;0.09;82.83
74310;BME280;62722;51.142;17.052;2023-04-03T03:22:54;101258.59;;;0.10;82.52
74310;BME280;62722;51.142;17.052;2023-04-03T03:25:21;101254.38;;;-0.05;83.33
74310;BME280;62722;51.142;17.052;2023-04-03T03:27:49;101245.69;;;-0.03;82.94
74310;BME280;62722;51.142;17.052;2023-04-03T03:30:16;101242.31;;;-0.12;83.76
74310;BME280;62722;51.142;17.052;2023-04-03T03:32:45;101251.84;;;-0.22;84.15
74310;BME280;62722;51.142;17.052;2023-04-03T03:35:13;101261.38;;;-0.19;84.13
74310;BME280;62722;51.142;17.052;2023-04-03T03:37:40;101257.94;;;-0.23;84.41
74310;BME280;62722;51.142;17.052;2023-04-03T03:40:09;101263.09;;;-0.17;84.40
74310;BME280;62722;51.142;17.052;2023-04-03T03:42:38;101258.81;;;-0.27;84.25
74310;BME280;62722;51.142;17.052;2023-04-03T03:45:06;101262.31;;;-0.31;84.34
74310;BME280;62722;51.142;17.052;2023-04-03T03:47:34;101269.22;;;-0.30;85.09
74310;BME280;62722;51.142;17.052;2023-04-03T03:50:04;101261.34;;;-0.16;84.43
74310;BME280;62722;51.142;17.052;2023-04-03T03:52:31;101264.81;;;-0.17;83.67
74310;BME280;62722;51.142;17.052;2023-04-03T03:54:58;101266.53;;;-0.18;84.12
74310;BME280;62722;51.142;17.052;2023-04-03T03:57:26;101270.88;;;-0.20;84.36
74310;BME280;62722;51.142;17.052;2023-04-03T03:59:54;101271.03;;;-0.47;85.22
74310;BME280;62722;51.142;17.052;2023-04-03T04:02:21;101271.84;;;-0.40;85.06
74310;BME280;62722;51.142;17.052;2023-04-03T04:04:49;101277.03;;;-0.39;84.92
74310;BME280;62722;51.142;17.052;2023-04-03T04:07:18;101271.84;;;-0.36;85.31
74310;BME280;62722;51.142;17.052;2023-04-03T04:09:45;101277.91;;;-0.43;85.20
74310;BME280;62722;51.142;17.052;2023-04-03T04:12:13;101277.88;;;-0.37;85.61
74310;BME280;62722;51.142;17.052;2023-04-03T04:14:40;101275.34;;;-0.51;85.87
74310;BME280;62722;51.142;17.052;2023-04-03T04:17:07;101271.00;;;-0.44;85.79
74310;BME280;62722;51.142;17.052;2023-04-03T04:19:34;101277.91;;;-0.43;85.68
74310;BME280;62722;51.142;17.052;2023-04-03T04:22:02;101289.16;;;-0.42;85.99
74310;BME280;62722;51.142;17.052;2023-04-03T04:24:31;101284.84;;;-0.46;86.10
74310;BME280;62722;51.142;17.052;2023-04-03T04:26:58;101289.22;;;-0.53;85.77
74310;BME280;62722;51.142;17.052;2023-04-03T04:29:25;101294.41;;;-0.58;85.93
74310;BME280;62722;51.142;17.052;2023-04-03T04:31:53;101302.19;;;-0.62;86.46
74310;BME280;62722;51.142;17.052;2023-04-03T04:34:20;101300.44;;;-0.54;86.03
74310;BME280;62722;51.142;17.052;2023-04-03T04:36:47;101306.50;;;-0.58;86.11
74310;BME280;62722;51.142;17.052;2023-04-03T04:39:15;101310.81;;;-0.54;86.17
74310;BME280;62722;51.142;17.052;2023-04-03T04:41:44;101310.88;;;-0.71;87.00
74310;BME280;62722;51.142;17.052;2023-04-03T04:44:11;101316.03;;;-0.66;86.70
74310;BME280;62722;51.142;17.052;2023-04-03T04:46:39;101320.38;;;-0.64;86.71
74310;BME280;62722;51.142;17.052;2023-04-03T04:49:06;101322.97;;;-0.71;86.93
74310;BME280;62722;51.142;17.052;2023-04-03T04:51:33;101328.19;;;-0.74;87.02
74310;BME280;62722;51.142;17.052;2023-04-03T04:54:01;101324.66;;;-0.61;86.99
74310;BME280;62722;51.142;17.052;2023-04-03T04:56:28;101325.53;;;-0.58;86.39
74310;BME280;62722;51.142;17.052;2023-04-03T04:58:57;101322.09;;;-0.64;86.84
74310;BME280;62722;51.142;17.052;2023-04-03T05:01:24;101326.41;;;-0.56;86.59
74310;BME280;62722;51.142;17.052;2023-04-03T05:03:51;101335.94;;;-0.64;86.81
74310;BME280;62722;51.142;17.052;2023-04-03T05:06:19;101337.63;;;-0.63;87.25
74310;BME280;62722;51.142;17.052;2023-04-03T05:08:46;101340.25;;;-0.64;87.57
74310;BME280;62722;51.142;17.052;2023-04-03T05:11:14;101331.56;;;-0.57;86.88
74310;BME280;62722;51.142;17.052;2023-04-03T05:13:41;101339.34;;;-0.53;87.11
74310;BME280;62722;51.142;17.052;2023-04-03T05:16:10;101341.94;;;-0.57;86.58
74310;BME280;62722;51.142;17.052;2023-04-03T05:18:38;101344.53;;;-0.53;86.91
74310;BME280;62722;51.142;17.052;2023-04-03T05:21:05;101352.28;;;-0.48;86.30
74310;BME280;62722;51.142;17.052;2023-04-03T05:23:33;101351.47;;;-0.56;86.79
74310;BME280;62722;51.142;17.052;2023-04-03T05:26:00;101355.75;;;-0.58;87.07
74310;BME280;62722;51.142;17.052;2023-04-03T05:28:28;101356.63;;;-0.59;86.91
74310;BME280;62722;51.142;17.052;2023-04-03T05:30:57;101338.47;;;-0.50;86.81
74310;BME280;62722;51.142;17.052;2023-04-03T05:33:26;101358.34;;;-0.46;86.62
74310;BME280;62722;51.142;17.052;2023-04-03T05:35:54;101360.84;;;-0.28;86.39
74310;BME280;62722;51.142;17.052;2023-04-03T05:38:21;101363.44;;;-0.28;85.46
74310;BME280;62722;51.142;17.052;2023-04-03T05:40:49;101368.59;;;-0.22;85.31
74310;BME280;62722;51.142;17.052;2023-04-03T05:43:16;101360.84;;;-0.25;85.85
74310;BME280;62722;51.142;17.052;2023-04-03T05:45:44;101363.44;;;-0.25;85.47
74310;BME280;62722;51.142;17.052;2023-04-03T05:48:11;101367.75;;;-0.19;85.23
74310;BME280;62722;51.142;17.052;2023-04-03T05:50:40;101368.59;;;-0.22;85.34
74310;BME280;62722;51.142;17.052;2023-04-03T05:53:15;101361.69;;;-0.21;85.31
74310;BME280;62722;51.142;17.052;2023-04-03T05:55:44;101380.66;;;-0.10;84.83
74310;BME280;62722;51.142;17.052;2023-04-03T05:58:12;101369.44;;;-0.12;84.36
74310;BME280;62722;51.142;17.052;2023-04-03T06:00:39;101385.00;;;-0.11;84.67
74310;BME280;62722;51.142;17.052;2023-04-03T06:03:06;101376.31;;;-0.07;84.06
74310;BME280;62722;51.142;17.052;2023-04-03T06:05:34;101374.59;;;-0.02;84.25
74310;BME280;62722;51.142;17.052;2023-04-03T06:08:03;101368.47;;;0.04;84.46
74310;BME280;62722;51.142;17.052;2023-04-03T06:10:34;101375.41;;;0.07;84.56
74310;BME280;62722;51.142;17.052;2023-04-03T06:13:03;101375.41;;;0.07;83.55
74310;BME280;62722;51.142;17.052;2023-04-03T06:15:32;101384.91;;;0.08;83.07
74310;BME280;62722;51.142;17.052;2023-04-03T06:17:59;101373.63;;;0.13;83.55
74310;BME280;62722;51.142;17.052;2023-04-03T06:20:27;101377.94;;;0.16;83.27
74310;BME280;62722;51.142;17.052;2023-04-03T06:22:54;101374.47;;;0.17;83.39
74310;BME280;62722;51.142;17.052;2023-04-03T06:25:24;101390.06;;;0.17;82.70
74310;BME280;62722;51.142;17.052;2023-04-03T06:27:52;101383.19;;;0.07;82.38
74310;BME280;62722;51.142;17.052;2023-04-03T06:30:21;101386.63;;;0.15;82.77
74310;BME280;62722;51.142;17.052;2023-04-03T06:32:48;101385.69;;;0.29;82.55
74310;BME280;62722;51.142;17.052;2023-04-03T06:35:16;101393.41;;;0.34;82.16
74310;BME280;62722;51.142;17.052;2023-04-03T06:37:43;101388.22;;;0.37;82.06
74310;BME280;62722;51.142;17.052;2023-04-03T06:40:22;101389.94;;;0.39;81.13
74310;BME280;62722;51.142;17.052;2023-04-03T06:42:53;101391.66;;;0.40;80.86
74310;BME280;62722;51.142;17.052;2023-04-03T06:45:20;101406.34;;;0.46;80.51
74310;BME280;62722;51.142;17.052;2023-04-03T06:47:48;101399.34;;;0.56;79.66
74310;BME280;62722;51.142;17.052;2023-04-03T06:50:15;101401.03;;;0.63;80.67
74310;BME280;62722;51.142;17.052;2023-04-03T06:52:42;101411.38;;;0.69;79.48
74310;BME280;62722;51.142;17.052;2023-04-03T06:55:10;101406.09;;;0.79;78.85
74310;BME280;62722;51.142;17.052;2023-04-03T06:57:38;101402.66;;;0.74;78.64
74310;BME280;62722;51.142;17.052;2023-04-03T07:00:08;101410.44;;;0.79;78.74
74310;BME280;62722;51.142;17.052;2023-04-03T07:02:39;101406.94;;;0.81;78.58
74310;BME280;62722;51.142;17.052;2023-04-03T07:05:07;101417.22;;;0.96;78.66
74310;BME280;62722;51.142;17.052;2023-04-03T07:07:34;101420.72;;;0.95;77.81
74310;BME280;62722;51.142;17.052;2023-04-03T07:10:04;101414.63;;;0.96;77.66
74310;BME280;62722;51.142;17.052;2023-04-03T07:12:32;101418.97;;;0.96;77.31
74310;BME280;62722;51.142;17.052;2023-04-03T07:14:59;101422.34;;;1.04;76.94
74310;BME280;62722;51.142;17.052;2023-04-03T07:17:28;101427.47;;;1.15;77.43
74310;BME280;62722;51.142;17.052;2023-04-03T07:19:56;101430.94;;;1.18;76.79
74310;BME280;62722;51.142;17.052;2023-04-03T07:22:23;101425.72;;;1.17;75.89
74310;BME280;62722;51.142;17.052;2023-04-03T07:24:51;101432.66;;;1.15;75.43
74310;BME280;62722;51.142;17.052;2023-04-03T07:27:18;101437.91;;;1.12;76.26
74310;BME280;62722;51.142;17.052;2023-04-03T07:29:46;101437.84;;;1.15;75.67
74310;BME280;62722;51.142;17.052;2023-04-03T07:32:14;101446.47;;;1.24;75.80
74310;BME280;62722;51.142;17.052;2023-04-03T07:34:44;101440.38;;;1.28;75.69
74310;BME280;62722;51.142;17.052;2023-04-03T07:37:11;101438.56;;;1.36;75.11
74310;BME280;62722;51.142;17.052;2023-04-03T07:39:38;101447.22;;;1.34;73.88
74310;BME280;62722;51.142;17.052;2023-04-03T07:42:06;101450.56;;;1.48;74.64
74310;BME280;62722;51.142;17.052;2023-04-03T07:44:33;101442.81;;;1.42;73.11
74310;BME280;62722;51.142;17.052;2023-04-03T07:47:01;101446.38;;;1.35;72.85
74310;BME280;62722;51.142;17.052;2023-04-03T07:49:28;101440.22;;;1.42;73.79
74310;BME280;62722;51.142;17.052;2023-04-03T07:51:57;101439.34;;;1.43;73.33
74310;BME280;62722;51.142;17.052;2023-04-03T07:54:24;101438.41;;;1.50;73.41
74310;BME280;62722;51.142;17.052;2023-04-03T07:56:51;101446.28;;;1.41;72.88
74310;BME280;62722;51.142;17.052;2023-04-03T07:59:19;101429.75;;;1.48;73.01
74310;BME280;62722;51.142;17.052;2023-04-03T08:01:46;101450.50;;;1.56;73.80
74310;BME280;62722;51.142;17.052;2023-04-03T08:04:14;101442.59;;;1.63;73.25
74310;BME280;62722;51.142;17.052;2023-04-03T08:06:41;101447.69;;;1.75;72.23
74310;BME280;62722;51.142;17.052;2023-04-03T08:09:10;101436.47;;;1.70;70.46
74310;BME280;62722;51.142;17.052;2023-04-03T08:11:38;101447.66;;;1.78;70.78
74310;BME280;62722;51.142;17.052;2023-04-03T08:14:06;101447.59;;;1.84;70.29
74310;BME280;62722;51.142;17.052;2023-04-03T08:16:33;101450.13;;;1.90;71.17
74310;BME280;62722;51.142;17.052;2023-04-03T08:19:00;101445.75;;;1.95;70.72
74310;BME280;62722;51.142;17.052;2023-04-03T08:21:28;101437.97;;;1.89;68.50
74310;BME280;62722;51.142;17.052;2023-04-03T08:23:55;101448.53;;;1.80;69.33
74310;BME280;62722;51.142;17.052;2023-04-03T08:26:24;101450.13;;;1.89;69.59
74310;BME280;62722;51.142;17.052;2023-04-03T08:28:52;101449.09;;;2.04;68.85
74310;BME280;62722;51.142;17.052;2023-04-03T08:31:20;101440.22;;;2.20;68.59
74310;BME280;62722;51.142;17.052;2023-04-03T08:33:47;101437.63;;;2.21;68.21
74310;BME280;62722;51.142;17.052;2023-04-03T08:36:19;101441.19;;;2.14;67.08
74310;BME280;62722;51.142;17.052;2023-04-03T08:38:48;101437.66;;;2.17;67.86
74310;BME280;62722;51.142;17.052;2023-04-03T08:41:20;101441.09;;;2.19;65.04
74310;BME280;62722;51.142;17.052;2023-04-03T08:44:03;101447.13;;;2.24;63.66
74310;BME280;62722;51.142;17.052;2023-04-03T08:46:42;101434.94;;;2.26;62.64
74310;BME280;62722;51.142;17.052;2023-04-03T08:49:20;101449.63;;;2.31;62.81
74310;BME280;62722;51.142;17.052;2023-04-03T08:51:50;101443.56;;;2.32;61.92
74310;BME280;62722;51.142;17.052;2023-04-03T08:54:26;101446.25;;;2.22;62.16
74310;BME280;62722;51.142;17.052;2023-04-03T08:56:59;101441.97;;;2.21;61.41
74310;BME280;62722;51.142;17.052;2023-04-03T08:59:33;101428.84;;;2.28;61.21
74310;BME280;62722;51.142;17.052;2023-04-03T09:02:17;101429.47;;;2.45;60.84
74310;BME280;62722;51.142;17.052;2023-04-03T09:04:48;101423.00;;;2.72;61.88
74310;BME280;62722;51.142;17.052;2023-04-03T09:07:21;101426.06;;;2.97;57.69
74310;BME280;62722;51.142;17.052;2023-04-03T09:09:52;101430.38;;;3.00;55.16
74310;BME280;62722;51.142;17.052;2023-04-03T09:12:24;101417.44;;;2.95;55.82
74310;BME280;62722;51.142;17.052;2023-04-03T09:15:02;101416.50;;;2.98;55.96
74310;BME280;62722;51.142;17.052;2023-04-03T09:17:41;101421.72;;;2.99;56.25
74310;BME280;62722;51.142;17.052;2023-04-03T09:20:19;101426.88;;;3.02;57.15
74310;BME280;62722;51.142;17.052;2023-04-03T09:22:52;101431.06;;;3.11;54.60
74310;BME280;62722;51.142;17.052;2023-04-03T09:25:21;101424.41;;;2.93;54.70
74310;BME280;62722;51.142;17.052;2023-04-03T09:27:50;101435.75;;;2.90;54.01
74310;BME280;62722;51.142;17.052;2023-04-03T09:30:22;101422.78;;;2.86;53.94
74310;BME280;62722;51.142;17.052;2023-04-03T09:32:51;101431.34;;;2.94;54.66
74310;BME280;62722;51.142;17.052;2023-04-03T09:35:21;101430.34;;;3.03;53.76
74310;BME280;62722;51.142;17.052;2023-04-03T09:37:51;101436.13;;;3.21;53.88
74310;BME280;62722;51.142;17.052;2023-04-03T09:40:34;101445.69;;;3.21;53.24
74310;BME280;62722;51.142;17.052;2023-04-03T09:43:20;101439.84;;;3.05;53.69
74310;BME280;62722;51.142;17.052;2023-04-03T09:45:51;101438.25;;;2.97;55.06
74310;BME280;62722;51.142;17.052;2023-04-03T09:48:19;101440.84;;;2.97;54.97
74310;BME280;62722;51.142;17.052;2023-04-03T09:50:59;101438.06;;;3.07;53.93
74310;BME280;62722;51.142;17.052;2023-04-03T09:53:33;101433.34;;;3.29;52.55
74310;BME280;62722;51.142;17.052;2023-04-03T09:56:03;101428.75;;;3.44;52.35
74310;BME280;62722;51.142;17.052;2023-04-03T09:58:40;101427.66;;;3.56;53.03
74310;BME280;62722;51.142;17.052;2023-04-03T10:01:28;101442.53;;;3.51;52.82
74310;BME280;62722;51.142;17.052;2023-04-03T10:04:05;101437.56;;;3.39;53.42
74310;BME280;62722;51.142;17.052;2023-04-03T10:06:34;101432.41;;;3.34;52.33
74310;BME280;62722;51.142;17.052;2023-04-03T10:09:04;101436.69;;;3.37;53.05
74310;BME280;62722;51.142;17.052;2023-04-03T10:11:32;101425.31;;;3.42;53.79
74310;BME280;62722;51.142;17.052;2023-04-03T10:14:01;101420.75;;;3.54;52.67
74310;BME280;62722;51.142;17.052;2023-04-03T10:16:36;101433.53;;;3.67;53.20
74310;BME280;62722;51.142;17.052;2023-04-03T10:19:24;101449.41;;;3.57;50.47
74310;BME280;62722;51.142;17.052;2023-04-03T10:21:59;101424.22;;;3.54;50.76
74310;BME280;62722;51.142;17.052;2023-04-03T10:24:31;101416.06;;;3.72;50.60
74310;BME280;62722;51.142;17.052;2023-04-03T10:27:06;101422.00;;;3.79;52.55
74310;BME280;62722;51.142;17.052;2023-04-03T10:29:43;101422.38;;;3.59;52.72
74310;BME280;62722;51.142;17.052;2023-04-03T10:35:23;101422.78;;;3.36;53.83
74310;BME280;62722;51.142;17.052;2023-04-03T10:38:02;101420.88;;;3.46;54.04
74310;BME280;62722;51.142;17.052;2023-04-03T10:40:37;101412.66;;;3.67;52.69
74310;BME280;62722;51.142;17.052;2023-04-03T10:43:09;101415.78;;;3.84;52.00
74310;BME280;62722;51.142;17.052;2023-04-03T10:45:53;101408.59;;;3.96;51.02
74310;BME280;62722;51.142;17.052;2023-04-03T10:48:35;101408.34;;;4.08;50.57
74310;BME280;62722;51.142;17.052;2023-04-03T10:51:15;101418.44;;;3.83;50.23
74310;BME280;62722;51.142;17.052;2023-04-03T10:53:52;101423.28;;;3.58;50.67
74310;BME280;62722;51.142;17.052;2023-04-03T10:56:31;101401.41;;;3.65;51.48
74310;BME280;62722;51.142;17.052;2023-04-03T10:59:03;101400.09;;;3.86;51.64
74310;BME280;62722;51.142;17.052;2023-04-03T11:01:37;101404.03;;;4.07;51.54
74310;BME280;62722;51.142;17.052;2023-04-03T11:04:06;101407.25;;;4.18;51.18
74310;BME280;62722;51.142;17.052;2023-04-03T11:06:39;101405.97;;;3.99;50.50
74310;BME280;62722;51.142;17.052;2023-04-03T11:09:18;101414.75;;;3.95;52.16
74310;BME280;62722;51.142;17.052;2023-04-03T11:11:46;101416.56;;;3.89;51.34
74310;BME280;62722;51.142;17.052;2023-04-03T11:14:27;101413.81;;;3.96;50.99
74310;BME280;62722;51.142;17.052;2023-04-03T11:17:10;101403.22;;;4.05;50.83
74310;BME280;62722;51.142;17.052;2023-04-03T11:19:42;101416.25;;;4.05;51.22
74310;BME280;62722;51.142;17.052;2023-04-03T11:22:22;101399.25;;;3.85;50.34
74310;BME280;62722;51.142;17.052;2023-04-03T11:25:03;101419.22;;;3.88;50.89
74310;BME280;62722;51.142;17.052;2023-04-03T11:27:37;101407.06;;;3.87;50.51
74310;BME280;62722;51.142;17.052;2023-04-03T11:30:14;101405.16;;;3.95;51.00
74310;BME280;62722;51.142;17.052;2023-04-03T11:36:12;101397.69;;;4.18;46.91
74310;BME280;62722;51.142;17.052;2023-04-03T11:38:48;101394.25;;;4.16;47.61
74310;BME280;62722;51.142;17.052;2023-04-03T11:41:26;101402.31;;;4.06;47.85
74310;BME280;62722;51.142;17.052;2023-04-03T11:43:59;101415.09;;;3.76;48.46
74310;BME280;62722;51.142;17.052;2023-04-03T11:46:49;101404.59;;;3.79;48.39
74310;BME280;62722;51.142;17.052;2023-04-03T11:49:50;101399.78;;;4.01;48.10
74310;BME280;62722;51.142;17.052;2023-04-03T11:52:59;101378.53;;;4.18;46.10
74310;BME280;62722;51.142;17.052;2023-04-03T11:55:58;101380.78;;;4.34;46.82
74310;BME280;62722;51.142;17.052;2023-04-03T11:58:28;101380.38;;;4.51;46.29
74310;BME280;62722;51.142;17.052;2023-04-03T12:01:06;101386.78;;;4.39;47.39
74310;BME280;62722;51.142;17.052;2023-04-03T12:04:06;101391.25;;;4.33;47.34
74310;BME280;62722;51.142;17.052;2023-04-03T12:06:53;101395.03;;;4.20;47.05
74310;BME280;62722;51.142;17.052;2023-04-03T12:12:34;101376.03;;;4.52;47.56
74310;BME280;62722;51.142;17.052;2023-04-03T12:21:18;101387.97;;;4.25;45.84
74310;BME280;62722;51.142;17.052;2023-04-03T12:24:15;101373.94;;;4.29;43.61
74310;BME280;62722;51.142;17.052;2023-04-03T12:27:09;101355.91;;;4.55;44.83
74310;BME280;62722;51.142;17.052;2023-04-03T12:29:47;101375.22;;;4.85;46.22
74310;BME280;62722;51.142;17.052;2023-04-03T12:32:31;101384.22;;;4.73;45.62
74310;BME280;62722;51.142;17.052;2023-04-03T12:35:10;101378.78;;;4.47;47.12
74310;BME280;62722;51.142;17.052;2023-04-03T12:37:59;101376.44;;;4.35;47.24
74310;BME280;62722;51.142;17.052;2023-04-03T12:40:38;101387.84;;;4.31;45.61
74310;BME280;62722;51.142;17.052;2023-04-03T12:43:20;101363.34;;;4.35;44.06
74310;BME280;62722;51.142;17.052;2023-04-03T12:45:58;101374.31;;;4.51;45.10
74310;BME280;62722;51.142;17.052;2023-04-03T12:48:31;101367.94;;;4.62;45.98
74310;BME280;62722;51.142;17.052;2023-04-03T12:50:59;101380.78;;;4.73;46.33
74310;BME280;62722;51.142;17.052;2023-04-03T12:53:31;101390.56;;;4.63;47.31
74310;BME280;62722;51.142;17.052;2023-04-03T12:56:18;101376.09;;;4.49;46.03
74310;BME280;62722;51.142;17.052;2023-04-03T12:58:46;101380.53;;;4.47;46.00
74310;BME280;62722;51.142;17.052;2023-04-03T13:01:17;101371.97;;;4.38;46.92
74310;BME280;62722;51.142;17.052;2023-04-03T13:03:48;101378.19;;;4.33;46.07
74310;BME280;62722;51.142;17.052;2023-04-03T13:06:21;101379.03;;;4.35;46.96
74310;BME280;62722;51.142;17.052;2023-04-03T13:08:57;101367.56;;;4.40;45.26
74310;BME280;62722;51.142;17.052;2023-04-03T13:11:27;101355.97;;;4.52;46.02
74310;BME280;62722;51.142;17.052;2023-04-03T13:13:58;101350.03;;;4.81;45.18
74310;BME280;62722;51.142;17.052;2023-04-03T13:16:28;101378.34;;;4.99;43.70
74310;BME280;62722;51.142;17.052;2023-04-03T13:18:57;101377.22;;;4.75;42.05
74310;BME280;62722;51.142;17.052;2023-04-03T13:21:27;101369.09;;;4.51;42.00
74310;BME280;62722;51.142;17.052;2023-04-03T13:23:57;101369.94;;;4.51;44.14
74310;BME280;62722;51.142;17.052;2023-04-03T13:26:28;101367.94;;;4.62;45.05